sensor_id;sensor_type;location;lat;lon;timestamp;P1;durP1;ratioP1;P2;durP2;ratioP2
63217;SDS011;49314;48.278;16.378;2022-12-29T00:01:15;9.37;;;8.67;;
63217;SDS011;49314;48.278;16.378;2022-12-29T00:03:41;7.70;;;7.13;;
63217;SDS011;49314;48.278;16.378;2022-12-29T00:06:06;9.10;;;8.50;;
63217;SDS011;49314;48.278;16.378;2022-12-29T00:08:31;8.13;;;7.63;;
63217;SDS011;49314;48.278;16.378;2022-12-29T00:11:09;8.15;;;7.55;;
63217;SDS011;49314;48.278;16.378;2022-12-29T00:13:35;8.40;;;7.80;;
63217;SDS011;49314;48.278;16.378;2022-12-29T00:16:19;8.15;;;7.55;;
63217;SDS011;49314;48.278;16.378;2022-12-29T00:18:44;9.35;;;8.75;;
63217;SDS011;49314;48.278;16.378;2022-12-29T00:21:13;8.63;;;8.02;;
63217;SDS011;49314;48.278;16.378;2022-12-29T00:23:57;7.57;;;6.97;;
63217;SDS011;49314;48.278;16.378;2022-12-29T00:26:53;9.20;;;8.50;;
63217;SDS011;49314;48.278;16.378;2022-12-29T00:29:37;8.60;;;7.90;;
63217;SDS011;49314;48.278;16.378;2022-12-29T00:32:20;8.40;;;7.72;;
63217;SDS011;49314;48.278;16.378;2022-12-29T00:35:04;9.75;;;8.95;;
63217;SDS011;49314;48.278;16.378;2022-12-29T00:37:33;8.63;;;8.00;;
63217;SDS011;49314;48.278;16.378;2022-12-29T00:40:16;10.45;;;9.65;;
63217;SDS011;49314;48.278;16.378;2022-12-29T00:43:00;9.07;;;8.35;;
63217;SDS011;49314;48.278;16.378;2022-12-29T00:45:44;9.10;;;8.40;;
63217;SDS011;49314;48.278;16.378;2022-12-29T00:48:09;9.77;;;8.97;;
63217;SDS011;49314;48.278;16.378;2022-12-29T00:50:34;9.47;;;8.67;;
63217;SDS011;49314;48.278;16.378;2022-12-29T00:52:59;10.10;;;9.30;;
63217;SDS011;49314;48.278;16.378;2022-12-29T00:55:25;9.23;;;8.53;;
63217;SDS011;49314;48.278;16.378;2022-12-29T00:57:50;10.00;;;9.13;;
63217;SDS011;49314;48.278;16.378;2022-12-29T01:00:15;10.37;;;9.47;;
63217;SDS011;49314;48.278;16.378;2022-12-29T01:02:40;10.75;;;9.75;;
63217;SDS011;49314;48.278;16.378;2022-12-29T01:05:05;10.57;;;9.63;;
63217;SDS011;49314;48.278;16.378;2022-12-29T01:07:31;11.07;;;9.98;;
63217;SDS011;49314;48.278;16.378;2022-12-29T01:09:56;11.50;;;10.40;;
63217;SDS011;49314;48.278;16.378;2022-12-29T01:12:36;11.43;;;10.32;;
63217;SDS011;49314;48.278;16.378;2022-12-29T01:15:10;11.18;;;10.18;;
63217;SDS011;49314;48.278;16.378;2022-12-29T01:17:35;10.70;;;9.60;;
63217;SDS011;49314;48.278;16.378;2022-12-29T01:20:01;11.17;;;10.07;;
63217;SDS011;49314;48.278;16.378;2022-12-29T01:22:26;12.80;;;11.68;;
63217;SDS011;49314;48.278;16.378;2022-12-29T01:24:52;11.38;;;10.40;;
63217;SDS011;49314;48.278;16.378;2022-12-29T01:27:17;12.20;;;11.10;;
63217;SDS011;49314;48.278;16.378;2022-12-29T01:29:42;12.43;;;11.33;;
63217;SDS011;49314;48.278;16.378;2022-12-29T01:32:07;11.37;;;10.40;;
63217;SDS011;49314;48.278;16.378;2022-12-29T01:34:32;11.97;;;10.87;;
63217;SDS011;49314;48.278;16.378;2022-12-29T01:36:58;12.20;;;11.00;;
63217;SDS011;49314;48.278;16.378;2022-12-29T01:39:23;11.20;;;10.10;;
63217;SDS011;49314;48.278;16.378;2022-12-29T01:41:48;12.57;;;11.40;;
63217;SDS011;49314;48.278;16.378;2022-12-29T01:46:57;11.52;;;10.52;;
63217;SDS011;49314;48.278;16.378;2022-12-29T01:49:23;12.30;;;11.20;;
63217;SDS011;49314;48.278;16.378;2022-12-29T01:51:51;10.73;;;9.88;;
63217;SDS011;49314;48.278;16.378;2022-12-29T01:54:27;11.13;;;10.13;;
63217;SDS011;49314;48.278;16.378;2022-12-29T01:56:53;11.35;;;10.35;;
63217;SDS011;49314;48.278;16.378;2022-12-29T01:59:20;11.07;;;10.07;;
63217;SDS011;49314;48.278;16.378;2022-12-29T02:01:46;10.68;;;9.68;;
63217;SDS011;49314;48.278;16.378;2022-12-29T02:04:12;11.00;;;9.98;;
63217;SDS011;49314;48.278;16.378;2022-12-29T02:06:40;10.75;;;9.80;;
63217;SDS011;49314;48.278;16.378;2022-12-29T02:09:06;11.35;;;10.35;;
63217;SDS011;49314;48.278;16.378;2022-12-29T02:11:31;11.23;;;10.13;;
63217;SDS011;49314;48.278;16.378;2022-12-29T02:13:56;10.77;;;9.77;;
63217;SDS011;49314;48.278;16.378;2022-12-29T02:16:43;11.70;;;10.70;;
63217;SDS011;49314;48.278;16.378;2022-12-29T02:32:58;10.85;;;9.85;;
63217;SDS011;49314;48.278;16.378;2022-12-29T02:36:27;8.52;;;7.85;;
63217;SDS011;49314;48.278;16.378;2022-12-29T02:45:45;11.38;;;10.48;;
63217;SDS011;49314;48.278;16.378;2022-12-29T02:48:15;10.93;;;10.02;;
63217;SDS011;49314;48.278;16.378;2022-12-29T02:50:55;8.82;;;8.00;;
63217;SDS011;49314;48.278;16.378;2022-12-29T02:53:22;9.63;;;8.90;;
63217;SDS011;49314;48.278;16.378;2022-12-29T02:56:08;10.77;;;9.82;;
63217;SDS011;49314;48.278;16.378;2022-12-29T02:58:33;10.88;;;10.02;;
63217;SDS011;49314;48.278;16.378;2022-12-29T03:08:39;9.70;;;9.00;;
63217;SDS011;49314;48.278;16.378;2022-12-29T03:11:08;10.57;;;9.77;;
63217;SDS011;49314;48.278;16.378;2022-12-29T03:13:59;11.52;;;10.55;;
63217;SDS011;49314;48.278;16.378;2022-12-29T03:16:46;9.38;;;8.57;;
63217;SDS011;49314;48.278;16.378;2022-12-29T03:19:55;8.88;;;8.07;;
63217;SDS011;49314;48.278;16.378;2022-12-29T03:22:01;10.43;;;9.60;;
63217;SDS011;49314;48.278;16.378;2022-12-29T03:24:47;10.48;;;9.60;;
63217;SDS011;49314;48.278;16.378;2022-12-29T03:27:14;10.38;;;9.57;;
63217;SDS011;49314;48.278;16.378;2022-12-29T03:29:49;9.02;;;8.13;;
63217;SDS011;49314;48.278;16.378;2022-12-29T03:32:18;9.73;;;8.93;;
63217;SDS011;49314;48.278;16.378;2022-12-29T03:34:43;7.85;;;7.25;;
63217;SDS011;49314;48.278;16.378;2022-12-29T03:37:10;9.05;;;8.27;;
63217;SDS011;49314;48.278;16.378;2022-12-29T03:39:36;8.73;;;8.10;;
63217;SDS011;49314;48.278;16.378;2022-12-29T03:42:02;9.38;;;8.68;;
63217;SDS011;49314;48.278;16.378;2022-12-29T03:44:36;8.50;;;7.80;;
63217;SDS011;49314;48.278;16.378;2022-12-29T03:47:02;9.05;;;8.38;;
63217;SDS011;49314;48.278;16.378;2022-12-29T03:49:27;8.95;;;8.25;;
63217;SDS011;49314;48.278;16.378;2022-12-29T03:51:52;8.38;;;7.72;;
63217;SDS011;49314;48.278;16.378;2022-12-29T03:54:18;9.00;;;8.35;;
63217;SDS011;49314;48.278;16.378;2022-12-29T03:56:43;8.50;;;7.88;;
63217;SDS011;49314;48.278;16.378;2022-12-29T03:59:09;9.57;;;8.87;;
63217;SDS011;49314;48.278;16.378;2022-12-29T04:01:34;7.90;;;7.30;;
63217;SDS011;49314;48.278;16.378;2022-12-29T04:03:59;9.60;;;8.93;;
63217;SDS011;49314;48.278;16.378;2022-12-29T04:06:24;8.40;;;7.80;;
63217;SDS011;49314;48.278;16.378;2022-12-29T04:08:49;8.15;;;7.55;;
63217;SDS011;49314;48.278;16.378;2022-12-29T04:11:15;8.37;;;7.67;;
63217;SDS011;49314;48.278;16.378;2022-12-29T04:13:40;9.30;;;8.70;;
63217;SDS011;49314;48.278;16.378;2022-12-29T04:16:06;8.20;;;7.60;;
63217;SDS011;49314;48.278;16.378;2022-12-29T04:18:31;8.00;;;7.32;;
63217;SDS011;49314;48.278;16.378;2022-12-29T04:20:56;8.33;;;7.70;;
63217;SDS011;49314;48.278;16.378;2022-12-29T04:23:28;6.35;;;5.75;;
63217;SDS011;49314;48.278;16.378;2022-12-29T04:25:54;7.68;;;7.18;;
63217;SDS011;49314;48.278;16.378;2022-12-29T04:28:19;8.73;;;8.03;;
63217;SDS011;49314;48.278;16.378;2022-12-29T04:30:45;7.73;;;7.13;;
63217;SDS011;49314;48.278;16.378;2022-12-29T04:33:10;8.23;;;7.53;;
63217;SDS011;49314;48.278;16.378;2022-12-29T04:35:35;9.52;;;8.82;;
63217;SDS011;49314;48.278;16.378;2022-12-29T04:38:00;8.93;;;8.33;;
63217;SDS011;49314;48.278;16.378;2022-12-29T04:40:26;8.77;;;8.18;;
63217;SDS011;49314;48.278;16.378;2022-12-29T04:42:51;8.57;;;7.90;;
63217;SDS011;49314;48.278;16.378;2022-12-29T04:45:16;7.37;;;6.87;;
63217;SDS011;49314;48.278;16.378;2022-12-29T04:47:41;7.07;;;6.47;;
63217;SDS011;49314;48.278;16.378;2022-12-29T04:50:07;8.63;;;8.03;;
63217;SDS011;49314;48.278;16.378;2022-12-29T04:52:32;8.10;;;7.50;;
63217;SDS011;49314;48.278;16.378;2022-12-29T04:54:57;7.60;;;7.15;;
63217;SDS011;49314;48.278;16.378;2022-12-29T04:57:23;8.30;;;7.80;;
63217;SDS011;49314;48.278;16.378;2022-12-29T04:59:48;7.88;;;7.28;;
63217;SDS011;49314;48.278;16.378;2022-12-29T05:02:13;7.20;;;6.70;;
63217;SDS011;49314;48.278;16.378;2022-12-29T05:04:38;7.80;;;7.30;;
63217;SDS011;49314;48.278;16.378;2022-12-29T05:07:03;8.33;;;7.67;;
63217;SDS011;49314;48.278;16.378;2022-12-29T05:09:29;8.38;;;7.78;;
63217;SDS011;49314;48.278;16.378;2022-12-29T05:11:54;8.38;;;7.80;;
63217;SDS011;49314;48.278;16.378;2022-12-29T05:14:20;8.43;;;7.82;;
63217;SDS011;49314;48.278;16.378;2022-12-29T05:16:45;8.13;;;7.63;;
63217;SDS011;49314;48.278;16.378;2022-12-29T05:19:10;7.90;;;7.40;;
63217;SDS011;49314;48.278;16.378;2022-12-29T05:21:35;8.07;;;7.47;;
63217;SDS011;49314;48.278;16.378;2022-12-29T05:24:00;7.03;;;6.53;;
63217;SDS011;49314;48.278;16.378;2022-12-29T05:26:26;7.63;;;7.13;;
63217;SDS011;49314;48.278;16.378;2022-12-29T05:28:51;7.63;;;7.05;;
63217;SDS011;49314;48.278;16.378;2022-12-29T05:31:17;7.38;;;6.82;;
63217;SDS011;49314;48.278;16.378;2022-12-29T05:33:43;7.30;;;6.88;;
63217;SDS011;49314;48.278;16.378;2022-12-29T05:36:09;7.03;;;6.53;;
63217;SDS011;49314;48.278;16.378;2022-12-29T05:38:34;6.85;;;6.38;;
63217;SDS011;49314;48.278;16.378;2022-12-29T05:40:59;7.63;;;7.03;;
63217;SDS011;49314;48.278;16.378;2022-12-29T05:43:25;7.57;;;7.07;;
63217;SDS011;49314;48.278;16.378;2022-12-29T05:45:50;8.13;;;7.60;;
63217;SDS011;49314;48.278;16.378;2022-12-29T05:48:16;7.45;;;7.03;;
63217;SDS011;49314;48.278;16.378;2022-12-29T05:50:41;6.68;;;6.18;;
63217;SDS011;49314;48.278;16.378;2022-12-29T05:53:06;8.20;;;7.70;;
63217;SDS011;49314;48.278;16.378;2022-12-29T05:55:31;7.07;;;6.68;;
63217;SDS011;49314;48.278;16.378;2022-12-29T05:57:56;8.27;;;7.77;;
63217;SDS011;49314;48.278;16.378;2022-12-29T06:00:22;8.13;;;7.55;;
63217;SDS011;49314;48.278;16.378;2022-12-29T06:02:47;7.93;;;7.43;;
63217;SDS011;49314;48.278;16.378;2022-12-29T06:05:12;6.90;;;6.40;;
63217;SDS011;49314;48.278;16.378;2022-12-29T06:07:37;8.30;;;7.80;;
63217;SDS011;49314;48.278;16.378;2022-12-29T06:10:03;6.73;;;6.33;;
63217;SDS011;49314;48.278;16.378;2022-12-29T06:12:29;6.82;;;6.32;;
63217;SDS011;49314;48.278;16.378;2022-12-29T06:14:54;6.43;;;6.03;;
63217;SDS011;49314;48.278;16.378;2022-12-29T06:17:19;6.73;;;6.33;;
63217;SDS011;49314;48.278;16.378;2022-12-29T06:19:44;6.40;;;6.00;;
63217;SDS011;49314;48.278;16.378;2022-12-29T06:22:10;7.55;;;7.10;;
63217;SDS011;49314;48.278;16.378;2022-12-29T06:24:37;8.20;;;7.70;;
63217;SDS011;49314;48.278;16.378;2022-12-29T06:27:02;6.93;;;6.47;;
63217;SDS011;49314;48.278;16.378;2022-12-29T06:29:28;7.72;;;7.32;;
63217;SDS011;49314;48.278;16.378;2022-12-29T06:31:53;7.10;;;6.60;;
63217;SDS011;49314;48.278;16.378;2022-12-29T06:34:22;8.77;;;8.27;;
63217;SDS011;49314;48.278;16.378;2022-12-29T06:36:47;8.02;;;7.53;;
63217;SDS011;49314;48.278;16.378;2022-12-29T06:39:13;7.03;;;6.63;;
63217;SDS011;49314;48.278;16.378;2022-12-29T06:41:38;6.50;;;6.10;;
63217;SDS011;49314;48.278;16.378;2022-12-29T06:44:03;7.00;;;6.57;;
63217;SDS011;49314;48.278;16.378;2022-12-29T06:46:28;6.97;;;6.57;;
63217;SDS011;49314;48.278;16.378;2022-12-29T06:48:53;7.20;;;6.77;;
63217;SDS011;49314;48.278;16.378;2022-12-29T06:51:19;7.33;;;6.90;;
63217;SDS011;49314;48.278;16.378;2022-12-29T06:53:44;7.50;;;7.00;;
63217;SDS011;49314;48.278;16.378;2022-12-29T06:56:09;6.80;;;6.40;;
63217;SDS011;49314;48.278;16.378;2022-12-29T06:58:34;7.33;;;6.53;;
63217;SDS011;49314;48.278;16.378;2022-12-29T07:00:59;7.00;;;6.50;;
63217;SDS011;49314;48.278;16.378;2022-12-29T07:03:25;7.47;;;6.87;;
63217;SDS011;49314;48.278;16.378;2022-12-29T07:05:50;7.60;;;7.00;;
63217;SDS011;49314;48.278;16.378;2022-12-29T07:08:15;7.63;;;6.95;;
63217;SDS011;49314;48.278;16.378;2022-12-29T07:10:40;6.80;;;6.30;;
63217;SDS011;49314;48.278;16.378;2022-12-29T07:13:05;6.17;;;5.77;;
63217;SDS011;49314;48.278;16.378;2022-12-29T07:15:32;6.47;;;6.07;;
63217;SDS011;49314;48.278;16.378;2022-12-29T07:17:57;5.63;;;5.22;;
63217;SDS011;49314;48.278;16.378;2022-12-29T07:20:23;8.10;;;7.50;;
63217;SDS011;49314;48.278;16.378;2022-12-29T07:22:48;8.17;;;7.67;;
63217;SDS011;49314;48.278;16.378;2022-12-29T07:25:13;6.67;;;6.00;;
63217;SDS011;49314;48.278;16.378;2022-12-29T07:27:39;6.22;;;5.72;;
63217;SDS011;49314;48.278;16.378;2022-12-29T07:30:04;6.47;;;6.07;;
63217;SDS011;49314;48.278;16.378;2022-12-29T07:32:33;6.78;;;6.28;;
63217;SDS011;49314;48.278;16.378;2022-12-29T07:34:58;6.82;;;6.40;;
63217;SDS011;49314;48.278;16.378;2022-12-29T07:37:24;6.97;;;6.50;;
63217;SDS011;49314;48.278;16.378;2022-12-29T07:39:49;6.57;;;6.10;;
63217;SDS011;49314;48.278;16.378;2022-12-29T07:42:14;6.37;;;5.77;;
63217;SDS011;49314;48.278;16.378;2022-12-29T07:44:39;6.03;;;5.63;;
63217;SDS011;49314;48.278;16.378;2022-12-29T07:47:04;6.10;;;5.60;;
63217;SDS011;49314;48.278;16.378;2022-12-29T07:49:29;7.07;;;6.57;;
63217;SDS011;49314;48.278;16.378;2022-12-29T07:51:55;6.57;;;6.10;;
63217;SDS011;49314;48.278;16.378;2022-12-29T07:54:20;7.00;;;6.43;;
63217;SDS011;49314;48.278;16.378;2022-12-29T07:56:47;7.07;;;6.57;;
63217;SDS011;49314;48.278;16.378;2022-12-29T07:59:12;7.17;;;6.67;;
63217;SDS011;49314;48.278;16.378;2022-12-29T08:01:37;6.83;;;6.43;;
63217;SDS011;49314;48.278;16.378;2022-12-29T08:04:03;6.63;;;6.18;;
63217;SDS011;49314;48.278;16.378;2022-12-29T08:06:28;5.93;;;5.53;;
63217;SDS011;49314;48.278;16.378;2022-12-29T08:08:55;7.43;;;6.93;;
63217;SDS011;49314;48.278;16.378;2022-12-29T08:11:21;7.07;;;6.53;;
63217;SDS011;49314;48.278;16.378;2022-12-29T08:13:46;7.37;;;6.73;;
63217;SDS011;49314;48.278;16.378;2022-12-29T08:16:11;6.50;;;6.10;;
63217;SDS011;49314;48.278;16.378;2022-12-29T08:18:36;6.40;;;5.87;;
63217;SDS011;49314;48.278;16.378;2022-12-29T08:21:02;8.07;;;7.47;;
63217;SDS011;49314;48.278;16.378;2022-12-29T08:23:28;6.28;;;5.88;;
63217;SDS011;49314;48.278;16.378;2022-12-29T08:25:59;7.53;;;6.93;;
63217;SDS011;49314;48.278;16.378;2022-12-29T08:28:25;6.40;;;6.00;;
63217;SDS011;49314;48.278;16.378;2022-12-29T08:30:50;6.93;;;6.43;;
63217;SDS011;49314;48.278;16.378;2022-12-29T08:33:15;6.40;;;5.90;;
63217;SDS011;49314;48.278;16.378;2022-12-29T08:35:40;6.80;;;6.30;;
63217;SDS011;49314;48.278;16.378;2022-12-29T08:38:05;6.17;;;5.67;;
63217;SDS011;49314;48.278;16.378;2022-12-29T08:40:31;6.37;;;5.97;;
63217;SDS011;49314;48.278;16.378;2022-12-29T08:42:56;6.93;;;6.43;;
63217;SDS011;49314;48.278;16.378;2022-12-29T08:45:21;7.50;;;6.80;;
63217;SDS011;49314;48.278;16.378;2022-12-29T08:47:46;7.50;;;7.00;;
63217;SDS011;49314;48.278;16.378;2022-12-29T08:50:11;7.33;;;6.77;;
63217;SDS011;49314;48.278;16.378;2022-12-29T08:52:36;7.53;;;7.03;;
63217;SDS011;49314;48.278;16.378;2022-12-29T08:55:02;6.57;;;5.97;;
63217;SDS011;49314;48.278;16.378;2022-12-29T08:57:27;6.65;;;6.22;;
63217;SDS011;49314;48.278;16.378;2022-12-29T08:59:52;7.27;;;6.87;;
63217;SDS011;49314;48.278;16.378;2022-12-29T09:02:17;7.43;;;6.90;;
63217;SDS011;49314;48.278;16.378;2022-12-29T09:04:43;6.70;;;6.20;;
63217;SDS011;49314;48.278;16.378;2022-12-29T09:07:08;6.97;;;6.47;;
63217;SDS011;49314;48.278;16.378;2022-12-29T09:09:33;6.67;;;6.27;;
63217;SDS011;49314;48.278;16.378;2022-12-29T09:11:58;7.55;;;7.03;;
63217;SDS011;49314;48.278;16.378;2022-12-29T09:14:23;6.70;;;6.30;;
63217;SDS011;49314;48.278;16.378;2022-12-29T09:16:50;6.33;;;5.93;;
63217;SDS011;49314;48.278;16.378;2022-12-29T09:19:34;6.22;;;5.82;;
63217;SDS011;49314;48.278;16.378;2022-12-29T09:21:59;7.50;;;7.00;;
63217;SDS011;49314;48.278;16.378;2022-12-29T09:24:24;7.27;;;6.77;;
63217;SDS011;49314;48.278;16.378;2022-12-29T09:26:50;7.40;;;6.90;;
63217;SDS011;49314;48.278;16.378;2022-12-29T09:29:15;7.53;;;7.00;;
63217;SDS011;49314;48.278;16.378;2022-12-29T09:31:40;6.85;;;6.35;;
63217;SDS011;49314;48.278;16.378;2022-12-29T09:34:05;6.93;;;6.43;;
63217;SDS011;49314;48.278;16.378;2022-12-29T09:36:31;7.60;;;7.10;;
63217;SDS011;49314;48.278;16.378;2022-12-29T09:38:56;7.17;;;6.67;;
63217;SDS011;49314;48.278;16.378;2022-12-29T09:41:26;7.40;;;6.90;;
63217;SDS011;49314;48.278;16.378;2022-12-29T09:46:37;7.43;;;6.93;;
63217;SDS011;49314;48.278;16.378;2022-12-29T09:51:28;6.53;;;6.13;;
63217;SDS011;49314;48.278;16.378;2022-12-29T09:53:56;6.15;;;5.68;;
63217;SDS011;49314;48.278;16.378;2022-12-29T09:56:22;7.25;;;6.75;;
63217;SDS011;49314;48.278;16.378;2022-12-29T09:58:50;6.07;;;5.68;;
63217;SDS011;49314;48.278;16.378;2022-12-29T10:01:27;6.40;;;5.88;;
63217;SDS011;49314;48.278;16.378;2022-12-29T10:03:54;6.65;;;6.07;;
63217;SDS011;49314;48.278;16.378;2022-12-29T10:06:30;6.28;;;5.88;;
63217;SDS011;49314;48.278;16.378;2022-12-29T10:24:24;5.97;;;5.67;;
63217;SDS011;49314;48.278;16.378;2022-12-29T10:26:51;6.93;;;6.53;;
63217;SDS011;49314;48.278;16.378;2022-12-29T10:29:18;5.65;;;5.35;;
63217;SDS011;49314;48.278;16.378;2022-12-29T10:32:06;5.78;;;5.18;;
63217;SDS011;49314;48.278;16.378;2022-12-29T10:34:49;6.90;;;6.40;;
63217;SDS011;49314;48.278;16.378;2022-12-29T10:43:07;6.50;;;6.10;;
63217;SDS011;49314;48.278;16.378;2022-12-29T10:45:37;6.75;;;6.25;;
63217;SDS011;49314;48.278;16.378;2022-12-29T10:48:09;6.20;;;5.80;;
63217;SDS011;49314;48.278;16.378;2022-12-29T10:50:37;6.65;;;6.15;;
63217;SDS011;49314;48.278;16.378;2022-12-29T10:53:07;6.43;;;5.93;;
63217;SDS011;49314;48.278;16.378;2022-12-29T10:55:35;6.88;;;6.28;;
63217;SDS011;49314;48.278;16.378;2022-12-29T10:58:01;7.25;;;6.75;;
63217;SDS011;49314;48.278;16.378;2022-12-29T11:00:29;6.72;;;6.32;;
63217;SDS011;49314;48.278;16.378;2022-12-29T11:07:49;8.37;;;7.70;;
63217;SDS011;49314;48.278;16.378;2022-12-29T11:10:16;6.30;;;5.70;;
63217;SDS011;49314;48.278;16.378;2022-12-29T11:12:41;6.78;;;6.28;;
63217;SDS011;49314;48.278;16.378;2022-12-29T11:15:19;6.53;;;6.00;;
63217;SDS011;49314;48.278;16.378;2022-12-29T11:17:51;7.10;;;6.50;;
63217;SDS011;49314;48.278;16.378;2022-12-29T11:23:02;7.05;;;6.45;;
63217;SDS011;49314;48.278;16.378;2022-12-29T11:25:28;8.35;;;7.63;;
63217;SDS011;49314;48.278;16.378;2022-12-29T11:30:26;7.40;;;6.80;;
63217;SDS011;49314;48.278;16.378;2022-12-29T11:32:52;7.13;;;6.63;;
63217;SDS011;49314;48.278;16.378;2022-12-29T11:35:39;6.80;;;6.28;;
63217;SDS011;49314;48.278;16.378;2022-12-29T11:38:03;7.72;;;7.13;;
63217;SDS011;49314;48.278;16.378;2022-12-29T11:40:29;7.50;;;7.00;;
63217;SDS011;49314;48.278;16.378;2022-12-29T11:42:56;7.57;;;7.05;;
63217;SDS011;49314;48.278;16.378;2022-12-29T11:45:27;7.78;;;7.22;;
63217;SDS011;49314;48.278;16.378;2022-12-29T11:47:58;6.82;;;6.32;;
63217;SDS011;49314;48.278;16.378;2022-12-29T11:50:25;8.52;;;7.93;;
63217;SDS011;49314;48.278;16.378;2022-12-29T11:52:56;6.68;;;6.25;;
63217;SDS011;49314;48.278;16.378;2022-12-29T11:55:23;7.15;;;6.65;;
63217;SDS011;49314;48.278;16.378;2022-12-29T11:57:50;7.05;;;6.55;;
63217;SDS011;49314;48.278;16.378;2022-12-29T12:00:18;8.75;;;7.93;;
63217;SDS011;49314;48.278;16.378;2022-12-29T12:02:51;6.55;;;6.10;;
63217;SDS011;49314;48.278;16.378;2022-12-29T12:07:44;7.83;;;7.30;;
63217;SDS011;49314;48.278;16.378;2022-12-29T12:10:13;7.60;;;6.97;;
63217;SDS011;49314;48.278;16.378;2022-12-29T12:15:19;8.30;;;7.55;;
63217;SDS011;49314;48.278;16.378;2022-12-29T12:17:53;7.82;;;7.20;;
63217;SDS011;49314;48.278;16.378;2022-12-29T12:20:24;7.80;;;6.57;;
63217;SDS011;49314;48.278;16.378;2022-12-29T12:25:20;7.70;;;7.20;;
63217;SDS011;49314;48.278;16.378;2022-12-29T12:28:10;8.02;;;7.22;;
63217;SDS011;49314;48.278;16.378;2022-12-29T12:30:36;7.50;;;6.90;;
63217;SDS011;49314;48.278;16.378;2022-12-29T12:35:32;8.33;;;7.57;;
63217;SDS011;49314;48.278;16.378;2022-12-29T12:38:20;6.63;;;5.80;;
63217;SDS011;49314;48.278;16.378;2022-12-29T12:43:43;8.30;;;7.50;;
63217;SDS011;49314;48.278;16.378;2022-12-29T12:48:52;8.95;;;8.25;;
63217;SDS011;49314;48.278;16.378;2022-12-29T12:56:29;8.70;;;8.10;;
63217;SDS011;49314;48.278;16.378;2022-12-29T13:06:35;9.23;;;8.52;;
63217;SDS011;49314;48.278;16.378;2022-12-29T13:09:22;8.05;;;7.38;;
63217;SDS011;49314;48.278;16.378;2022-12-29T13:15:07;8.85;;;8.18;;
63217;SDS011;49314;48.278;16.378;2022-12-29T13:22:14;8.40;;;7.70;;
63217;SDS011;49314;48.278;16.378;2022-12-29T13:27:14;9.30;;;8.60;;
63217;SDS011;49314;48.278;16.378;2022-12-29T13:32:26;8.13;;;7.43;;
63217;SDS011;49314;48.278;16.378;2022-12-29T13:35:06;8.05;;;7.45;;
63217;SDS011;49314;48.278;16.378;2022-12-29T13:37:33;7.93;;;7.32;;
63217;SDS011;49314;48.278;16.378;2022-12-29T13:40:10;9.35;;;8.40;;
63217;SDS011;49314;48.278;16.378;2022-12-29T13:42:36;8.70;;;7.97;;
63217;SDS011;49314;48.278;16.378;2022-12-29T13:45:02;8.45;;;7.85;;
63217;SDS011;49314;48.278;16.378;2022-12-29T13:50:01;8.98;;;8.27;;
63217;SDS011;49314;48.278;16.378;2022-12-29T13:52:32;9.25;;;8.55;;
63217;SDS011;49314;48.278;16.378;2022-12-29T14:00:25;8.40;;;7.68;;
63217;SDS011;49314;48.278;16.378;2022-12-29T14:03:10;8.32;;;7.65;;
63217;SDS011;49314;48.278;16.378;2022-12-29T14:05:37;8.57;;;7.97;;
63217;SDS011;49314;48.278;16.378;2022-12-29T14:08:06;8.47;;;7.97;;
63217;SDS011;49314;48.278;16.378;2022-12-29T14:10:45;9.07;;;8.45;;
63217;SDS011;49314;48.278;16.378;2022-12-29T14:13:18;7.30;;;6.78;;
63217;SDS011;49314;48.278;16.378;2022-12-29T14:15:50;7.70;;;7.20;;
63217;SDS011;49314;48.278;16.378;2022-12-29T14:18:17;8.20;;;7.60;;
63217;SDS011;49314;48.278;16.378;2022-12-29T14:20:49;8.52;;;8.00;;
63217;SDS011;49314;48.278;16.378;2022-12-29T14:23:24;6.33;;;5.80;;
63217;SDS011;49314;48.278;16.378;2022-12-29T14:28:35;8.00;;;7.35;;
63217;SDS011;49314;48.278;16.378;2022-12-29T14:31:42;7.93;;;7.43;;
63217;SDS011;49314;48.278;16.378;2022-12-29T14:36:39;8.55;;;7.93;;
63217;SDS011;49314;48.278;16.378;2022-12-29T14:44:02;7.70;;;7.20;;
63217;SDS011;49314;48.278;16.378;2022-12-29T14:49:39;5.90;;;5.50;;
63217;SDS011;49314;48.278;16.378;2022-12-29T14:57:03;7.73;;;7.23;;
63217;SDS011;49314;48.278;16.378;2022-12-29T14:59:29;7.75;;;7.25;;
63217;SDS011;49314;48.278;16.378;2022-12-29T15:01:55;7.88;;;7.32;;
63217;SDS011;49314;48.278;16.378;2022-12-29T15:04:21;7.82;;;7.32;;
63217;SDS011;49314;48.278;16.378;2022-12-29T15:06:48;8.20;;;7.60;;
63217;SDS011;49314;48.278;16.378;2022-12-29T15:11:50;7.95;;;7.43;;
63217;SDS011;49314;48.278;16.378;2022-12-29T15:14:32;7.85;;;7.25;;
63217;SDS011;49314;48.278;16.378;2022-12-29T15:16:58;7.20;;;6.65;;
63217;SDS011;49314;48.278;16.378;2022-12-29T15:19:24;8.55;;;7.78;;
63217;SDS011;49314;48.278;16.378;2022-12-29T15:21:49;6.78;;;6.28;;
63217;SDS011;49314;48.278;16.378;2022-12-29T15:24:15;8.10;;;7.60;;
63217;SDS011;49314;48.278;16.378;2022-12-29T15:26:47;8.43;;;7.72;;
63217;SDS011;49314;48.278;16.378;2022-12-29T15:31:58;8.80;;;8.10;;
63217;SDS011;49314;48.278;16.378;2022-12-29T15:34:24;8.13;;;7.53;;
63217;SDS011;49314;48.278;16.378;2022-12-29T15:36:50;7.90;;;7.30;;
63217;SDS011;49314;48.278;16.378;2022-12-29T15:39:28;8.32;;;7.72;;
63217;SDS011;49314;48.278;16.378;2022-12-29T15:41:55;8.07;;;7.38;;
63217;SDS011;49314;48.278;16.378;2022-12-29T15:44:36;8.65;;;8.05;;
63217;SDS011;49314;48.278;16.378;2022-12-29T15:47:03;7.88;;;7.18;;
63217;SDS011;49314;48.278;16.378;2022-12-29T15:49:29;8.05;;;7.47;;
63217;SDS011;49314;48.278;16.378;2022-12-29T15:51:54;7.73;;;7.13;;
63217;SDS011;49314;48.278;16.378;2022-12-29T15:54:20;7.67;;;7.07;;
63217;SDS011;49314;48.278;16.378;2022-12-29T15:56:46;7.57;;;7.03;;
63217;SDS011;49314;48.278;16.378;2022-12-29T16:02:10;7.93;;;7.32;;
63217;SDS011;49314;48.278;16.378;2022-12-29T16:04:35;8.43;;;7.82;;
63217;SDS011;49314;48.278;16.378;2022-12-29T16:07:01;8.13;;;7.32;;
63217;SDS011;49314;48.278;16.378;2022-12-29T16:09:42;8.73;;;7.97;;
63217;SDS011;49314;48.278;16.378;2022-12-29T16:12:14;7.80;;;7.18;;
63217;SDS011;49314;48.278;16.378;2022-12-29T16:17:09;7.68;;;7.13;;
63217;SDS011;49314;48.278;16.378;2022-12-29T16:19:37;9.20;;;8.55;;
63217;SDS011;49314;48.278;16.378;2022-12-29T16:22:12;8.57;;;7.97;;
63217;SDS011;49314;48.278;16.378;2022-12-29T16:24:41;7.68;;;7.07;;
63217;SDS011;49314;48.278;16.378;2022-12-29T16:27:07;8.40;;;7.80;;
63217;SDS011;49314;48.278;16.378;2022-12-29T16:29:35;7.75;;;7.15;;
63217;SDS011;49314;48.278;16.378;2022-12-29T16:32:00;7.32;;;6.82;;
63217;SDS011;49314;48.278;16.378;2022-12-29T16:34:42;8.07;;;7.40;;
63217;SDS011;49314;48.278;16.378;2022-12-29T16:39:51;7.25;;;6.75;;
63217;SDS011;49314;48.278;16.378;2022-12-29T16:42:33;9.38;;;8.60;;
63217;SDS011;49314;48.278;16.378;2022-12-29T16:45:06;7.55;;;7.05;;
63217;SDS011;49314;48.278;16.378;2022-12-29T16:47:41;6.97;;;6.38;;
63217;SDS011;49314;48.278;16.378;2022-12-29T16:50:10;8.93;;;8.23;;
63217;SDS011;49314;48.278;16.378;2022-12-29T16:52:36;7.45;;;6.85;;
63217;SDS011;49314;48.278;16.378;2022-12-29T16:55:02;7.73;;;7.13;;
63217;SDS011;49314;48.278;16.378;2022-12-29T16:57:28;8.30;;;7.70;;
63217;SDS011;49314;48.278;16.378;2022-12-29T16:59:55;7.75;;;7.25;;
63217;SDS011;49314;48.278;16.378;2022-12-29T17:02:21;7.57;;;6.97;;
63217;SDS011;49314;48.278;16.378;2022-12-29T17:04:48;6.75;;;6.15;;
63217;SDS011;49314;48.278;16.378;2022-12-29T17:07:18;7.82;;;7.22;;